createdAt,value
2018-03-27T00:01:13.261Z,61.00
2018-03-27T00:03:41.699Z,61.50
2018-03-27T00:06:10.115Z,60.50
2018-03-27T00:08:38.434Z,60.10
2018-03-27T00:11:06.718Z,59.50
2018-03-27T00:13:35.192Z,59.10
2018-03-27T00:16:03.507Z,59.00
2018-03-27T00:18:32.243Z,58.90
2018-03-27T00:21:00.504Z,58.50
2018-03-27T00:23:28.801Z,58.40
2018-03-27T00:25:57.084Z,58.90
2018-03-27T00:28:43.726Z,58.50
2018-03-27T00:31:30.141Z,58.20
2018-03-27T00:34:17.223Z,60.30
2018-03-27T00:37:04.563Z,61.60
2018-03-27T00:39:50.898Z,61.10
2018-03-27T00:42:43.324Z,60.80
2018-03-27T00:45:11.856Z,60.80
2018-03-27T00:47:40.208Z,60.70
2018-03-27T00:50:08.578Z,60.60
2018-03-27T00:52:37.383Z,60.30
2018-03-27T00:55:05.738Z,60.10
2018-03-27T00:57:34.817Z,59.40
2018-03-27T01:00:03.159Z,59.30
2018-03-27T01:02:31.470Z,59.70
2018-03-27T01:05:05.334Z,59.50
2018-03-27T01:07:33.814Z,59.90
2018-03-27T01:10:02.109Z,59.90
2018-03-27T01:12:30.804Z,60.20
2018-03-27T01:14:59.397Z,60.50
2018-03-27T01:17:27.816Z,60.70
2018-03-27T01:19:56.192Z,60.10
2018-03-27T01:22:24.667Z,59.50
2018-03-27T01:24:53.904Z,59.10
2018-03-27T01:27:22.278Z,59.10
2018-03-27T01:29:50.748Z,58.50
2018-03-27T01:32:19.187Z,60.00
2018-03-27T01:34:48.374Z,60.50
2018-03-27T01:37:16.708Z,60.50
2018-03-27T01:39:45.002Z,60.70
2018-03-27T01:42:14.367Z,63.60
2018-03-27T01:44:42.814Z,63.60
2018-03-27T01:47:11.248Z,63.30
2018-03-27T01:49:40.665Z,62.90
2018-03-27T01:52:09.141Z,62.90
2018-03-27T01:54:37.417Z,62.10
2018-03-27T01:57:05.762Z,61.50
2018-03-27T01:59:34.114Z,60.70
2018-03-27T02:02:03.166Z,61.40
2018-03-27T02:04:31.462Z,61.30
2018-03-27T02:06:59.746Z,60.80
2018-03-27T02:09:28.157Z,60.20
2018-03-27T02:12:02.100Z,60.90
2018-03-27T02:14:36.130Z,60.50
2018-03-27T02:17:09.884Z,60.50
2018-03-27T02:19:43.693Z,60.20
2018-03-27T02:22:12.099Z,60.30
2018-03-27T02:24:40.488Z,60.30
2018-03-27T02:27:08.932Z,61.20
2018-03-27T02:29:37.239Z,61.10
2018-03-27T02:32:05.543Z,60.20
2018-03-27T02:34:33.877Z,61.30
2018-03-27T02:37:02.328Z,60.70
2018-03-27T02:39:31.608Z,60.60
2018-03-27T02:42:00.022Z,60.60
2018-03-27T02:44:28.359Z,61.70
2018-03-27T02:46:56.688Z,62.70
2018-03-27T02:49:25.110Z,63.20
2018-03-27T02:51:53.445Z,63.30
2018-03-27T02:54:22.005Z,62.20
2018-03-27T02:56:50.548Z,62.30
2018-03-27T02:59:18.869Z,61.40
2018-03-27T03:01:47.233Z,62.50
2018-03-27T03:04:17.510Z,62.40
2018-03-27T03:06:45.899Z,62.30
2018-03-27T03:09:14.332Z,61.40
2018-03-27T03:11:42.859Z,61.30
2018-03-27T03:14:11.304Z,61.40
2018-03-27T03:16:39.619Z,61.00
2018-03-27T03:19:07.928Z,61.70
2018-03-27T03:21:37.017Z,62.10
2018-03-27T03:24:06.164Z,61.70
2018-03-27T03:26:34.824Z,61.70
2018-03-27T03:29:03.763Z,61.60
2018-03-27T03:31:32.083Z,61.30
2018-03-27T03:34:01.172Z,61.90
2018-03-27T03:36:31.272Z,61.90
2018-03-27T03:38:59.682Z,62.00
2018-03-27T03:41:27.944Z,62.80
2018-03-27T03:43:57.171Z,62.80
2018-03-27T03:46:25.452Z,62.70
2018-03-27T03:48:53.769Z,63.20
2018-03-27T03:51:22.083Z,62.80
2018-03-27T03:53:50.620Z,62.70
2018-03-27T03:56:19.253Z,62.50
2018-03-27T03:58:47.557Z,61.50
2018-03-27T04:01:15.863Z,62.10
2018-03-27T04:03:44.145Z,61.60
2018-03-27T04:06:13.578Z,61.60
2018-03-27T04:08:42.590Z,60.80
2018-03-27T04:11:10.878Z,60.80
2018-03-27T04:13:39.163Z,61.90
2018-03-27T04:16:07.509Z,63.40
2018-03-27T04:18:35.962Z,64.10
2018-03-27T04:21:05.008Z,63.50
2018-03-27T04:23:33.393Z,63.50
2018-03-27T04:26:01.863Z,62.90
2018-03-27T04:28:30.339Z,64.10
2018-03-27T04:30:58.697Z,64.10
2018-03-27T04:33:27.135Z,63.70
2018-03-27T04:35:56.681Z,63.90
2018-03-27T04:38:25.288Z,63.90
2018-03-27T04:40:53.754Z,63.50
2018-03-27T04:43:22.334Z,63.70
2018-03-27T04:45:50.834Z,64.10
2018-03-27T04:48:19.242Z,63.60
2018-03-27T04:50:47.654Z,63.50
2018-03-27T04:53:16.724Z,64.90
2018-03-27T04:55:45.139Z,64.70
2018-03-27T04:58:13.643Z,64.40
2018-03-27T05:00:41.966Z,64.80
2018-03-27T05:03:10.568Z,65.10
2018-03-27T05:05:39.818Z,64.90
2018-03-27T05:08:09.969Z,64.00
2018-03-27T05:10:38.326Z,63.90
2018-03-27T05:13:06.615Z,63.40
2018-03-27T05:15:34.894Z,63.10
2018-03-27T05:18:04.245Z,62.50
2018-03-27T05:20:32.615Z,62.50
2018-03-27T05:23:01.170Z,62.20
2018-03-27T05:25:29.576Z,61.60
2018-03-27T05:27:57.923Z,60.80
2018-03-27T05:30:26.189Z,60.50
2018-03-27T05:32:54.514Z,60.20
2018-03-27T05:35:23.650Z,60.60
2018-03-27T05:37:52.171Z,60.10
2018-03-27T05:40:21.197Z,59.20
2018-03-27T05:42:49.613Z,59.20
2018-03-27T05:45:17.949Z,58.60
2018-03-27T05:47:46.422Z,58.70
2018-03-27T05:50:15.118Z,59.20
2018-03-27T05:52:43.404Z,58.80
2018-03-27T05:55:11.818Z,59.00
2018-03-27T05:57:41.025Z,59.30
2018-03-27T06:00:09.352Z,59.30
2018-03-27T06:02:37.798Z,59.30
2018-03-27T06:05:06.906Z,59.70
2018-03-27T06:07:35.359Z,59.60
2018-03-27T06:10:05.854Z,58.70
2018-03-27T06:12:34.325Z,58.60
2018-03-27T06:15:02.618Z,58.40
2018-03-27T06:17:31.019Z,58.80
2018-03-27T06:19:59.413Z,58.70
2018-03-27T06:22:28.460Z,59.20
2018-03-27T06:24:56.945Z,59.20
2018-03-27T06:27:25.452Z,59.10
2018-03-27T06:29:53.934Z,59.50
2018-03-27T06:32:22.417Z,59.50
2018-03-27T06:34:50.813Z,60.30
2018-03-27T06:37:19.218Z,59.90
2018-03-27T06:39:47.680Z,60.10
2018-03-27T06:42:16.231Z,60.30
2018-03-27T06:44:44.825Z,60.00
2018-03-27T06:47:14.035Z,60.40
2018-03-27T06:49:43.113Z,60.70
2018-03-27T06:52:12.155Z,60.70
2018-03-27T06:54:40.463Z,60.40
2018-03-27T06:57:08.861Z,60.50
2018-03-27T06:59:37.328Z,60.00
2018-03-27T07:02:06.010Z,60.10
2018-03-27T07:04:35.841Z,59.20
2018-03-27T07:07:04.396Z,59.20
2018-03-27T07:09:32.813Z,58.30
2018-03-27T07:12:01.245Z,58.90
2018-03-27T07:14:29.655Z,58.30
2018-03-27T07:16:58.204Z,57.90
2018-03-27T07:19:26.514Z,56.90
2018-03-27T07:21:55.814Z,55.10
2018-03-27T07:24:24.221Z,55.10
2018-03-27T07:26:52.535Z,56.10
2018-03-27T07:29:20.895Z,55.60
2018-03-27T07:31:49.243Z,56.50
2018-03-27T07:34:18.432Z,54.80
2018-03-27T07:36:47.698Z,55.00
2018-03-27T07:39:16.327Z,54.90
2018-03-27T07:41:44.673Z,54.00
2018-03-27T07:44:14.273Z,54.00
2018-03-27T07:46:42.717Z,54.00
2018-03-27T07:49:11.239Z,52.80
2018-03-27T07:51:39.564Z,51.40
2018-03-27T07:54:07.891Z,51.60
2018-03-27T07:56:36.336Z,51.10
2018-03-27T07:59:04.724Z,49.70
2018-03-27T08:01:33.190Z,49.70
2018-03-27T08:04:01.816Z,49.50
2018-03-27T08:06:30.204Z,49.00
2018-03-27T08:08:58.526Z,49.90
2018-03-27T08:11:26.919Z,49.40
2018-03-27T08:13:56.156Z,49.80
2018-03-27T08:16:24.628Z,49.30
2018-03-27T08:18:53.124Z,47.70
2018-03-27T08:21:21.530Z,48.00
2018-03-27T08:23:49.851Z,47.30
2018-03-27T08:26:18.169Z,46.50
2018-03-27T08:28:47.250Z,45.30
2018-03-27T08:31:15.648Z,45.20
2018-03-27T08:33:44.735Z,44.70
2018-03-27T08:36:13.924Z,40.90
2018-03-27T08:38:42.204Z,40.90
2018-03-27T08:41:11.362Z,41.40
2018-03-27T08:43:39.673Z,41.40
2018-03-27T08:46:08.058Z,40.60
2018-03-27T08:48:37.321Z,41.70
2018-03-27T08:51:05.613Z,41.60
2018-03-27T08:53:34.131Z,40.90
2018-03-27T08:56:03.229Z,37.30
2018-03-27T08:58:32.281Z,37.30
2018-03-27T09:01:02.074Z,36.50
2018-03-27T09:03:30.396Z,36.50
2018-03-27T09:05:59.546Z,33.40
2018-03-27T09:08:27.991Z,33.30
2018-03-27T09:10:56.312Z,35.40
2018-03-27T09:13:24.669Z,34.80
2018-03-27T09:15:54.110Z,34.30
2018-03-27T09:18:22.759Z,30.60
2018-03-27T09:20:51.351Z,29.70
2018-03-27T09:23:19.789Z,29.80
2018-03-27T09:25:48.545Z,29.00
2018-03-27T09:28:16.984Z,27.90
2018-03-27T09:30:45.336Z,28.50
2018-03-27T09:33:13.832Z,26.40
2018-03-27T09:35:42.425Z,26.50
2018-03-27T09:38:10.790Z,24.50
2018-03-27T09:40:39.150Z,25.20
2018-03-27T09:43:08.394Z,25.70
2018-03-27T09:45:38.001Z,24.50
2018-03-27T09:48:06.554Z,24.40
2018-03-27T09:50:34.897Z,22.20
2018-03-27T09:53:04.125Z,23.00
2018-03-27T09:55:32.583Z,23.00
2018-03-27T09:58:01.713Z,25.10
2018-03-27T10:00:35.526Z,25.10
2018-03-27T10:03:03.841Z,24.70
2018-03-27T10:05:33.022Z,26.10
2018-03-27T10:08:01.576Z,26.20
2018-03-27T10:10:30.286Z,26.00
2018-03-27T10:12:58.607Z,26.40
2018-03-27T10:15:27.191Z,26.70
2018-03-27T10:17:56.488Z,26.90
2018-03-27T10:20:25.588Z,26.60
2018-03-27T10:22:53.881Z,26.70
2018-03-27T10:27:57.038Z,26.30
2018-03-27T10:30:26.426Z,26.50
2018-03-27T10:32:54.728Z,26.20
2018-03-27T10:35:23.023Z,25.70
2018-03-27T10:37:52.228Z,23.60
2018-03-27T10:40:21.302Z,25.10
2018-03-27T10:42:51.427Z,24.50
2018-03-27T10:45:20.563Z,23.90
2018-03-27T10:47:48.883Z,23.90
2018-03-27T10:50:17.316Z,24.10
2018-03-27T10:52:45.734Z,25.40
2018-03-27T10:55:14.163Z,26.10
2018-03-27T10:57:42.751Z,24.70
2018-03-27T11:00:11.115Z,24.20
2018-03-27T11:02:40.387Z,24.10
2018-03-27T11:05:08.746Z,24.00
2018-03-27T11:07:37.216Z,24.40
2018-03-27T11:10:05.659Z,24.10
2018-03-27T11:12:35.037Z,25.60
2018-03-27T11:15:03.685Z,25.60
2018-03-27T11:17:32.055Z,24.60
2018-03-27T11:20:00.487Z,24.80
2018-03-27T11:22:29.804Z,24.80
2018-03-27T11:24:58.256Z,24.80
2018-03-27T11:27:27.636Z,26.10
2018-03-27T11:29:55.992Z,26.10
2018-03-27T11:32:24.461Z,25.50
2018-03-27T11:34:54.137Z,26.10
2018-03-27T11:37:22.796Z,26.00
2018-03-27T11:39:51.137Z,25.70
2018-03-27T11:42:19.498Z,25.90
2018-03-27T11:44:47.878Z,25.90
2018-03-27T11:47:16.569Z,25.70
2018-03-27T11:49:44.925Z,25.40
2018-03-27T11:52:13.227Z,25.80
2018-03-27T11:54:41.596Z,26.20
2018-03-27T11:57:10.651Z,26.70
2018-03-27T11:59:38.946Z,26.60
2018-03-27T12:02:08.147Z,26.00
2018-03-27T12:04:37.335Z,26.10
2018-03-27T12:07:07.292Z,26.30
2018-03-27T12:09:35.610Z,26.20
2018-03-27T12:12:04.839Z,26.60
2018-03-27T12:14:34.062Z,26.40
2018-03-27T12:17:02.529Z,26.40
2018-03-27T12:19:30.885Z,26.80
2018-03-27T12:21:59.946Z,27.10
2018-03-27T12:24:28.289Z,27.10
2018-03-27T12:26:56.656Z,27.80
2018-03-27T12:29:25.096Z,27.50
2018-03-27T12:31:54.336Z,28.30
2018-03-27T12:34:22.867Z,28.40
2018-03-27T12:36:51.289Z,28.00
2018-03-27T12:39:20.693Z,27.90
2018-03-27T12:41:49.006Z,27.90
2018-03-27T12:44:17.448Z,27.80
2018-03-27T12:46:46.091Z,27.80
2018-03-27T12:49:14.553Z,27.70
2018-03-27T12:51:42.905Z,28.50
2018-03-27T12:54:11.376Z,28.00
2018-03-27T12:56:39.737Z,28.00
2018-03-27T12:59:08.957Z,29.20
2018-03-27T13:01:37.469Z,29.20
2018-03-27T13:04:05.830Z,29.00
2018-03-27T13:06:34.196Z,28.60
2018-03-27T13:09:02.587Z,29.10
2018-03-27T13:11:31.158Z,28.30
2018-03-27T13:13:59.747Z,28.30
2018-03-27T13:16:28.121Z,28.70
2018-03-27T13:18:56.474Z,29.00
2018-03-27T13:21:25.698Z,28.40
2018-03-27T13:23:54.036Z,28.40
2018-03-27T13:26:23.110Z,29.10
2018-03-27T13:28:51.430Z,29.10
2018-03-27T13:31:19.813Z,29.00
2018-03-27T13:33:48.586Z,29.00
2018-03-27T13:36:17.842Z,29.50
2018-03-27T13:38:47.058Z,29.20
2018-03-27T13:41:15.393Z,29.10
2018-03-27T13:43:43.863Z,29.00
2018-03-27T13:46:12.328Z,28.90
2018-03-27T13:48:40.777Z,30.00
2018-03-27T13:51:09.181Z,29.90
2018-03-27T13:53:37.667Z,29.90
2018-03-27T13:56:06.009Z,29.90
2018-03-27T13:58:34.297Z,30.20
2018-03-27T14:01:03.005Z,31.20
2018-03-27T14:03:31.455Z,31.50
2018-03-27T14:05:59.946Z,31.70
2018-03-27T14:08:29.583Z,31.50
2018-03-27T14:10:58.121Z,31.50
2018-03-27T14:13:26.504Z,31.50
2018-03-27T14:15:54.921Z,32.30
2018-03-27T14:18:23.253Z,32.70
2018-03-27T14:20:51.622Z,32.00
2018-03-27T14:23:20.155Z,32.70
2018-03-27T14:25:48.651Z,33.20
2018-03-27T14:28:17.113Z,34.00
2018-03-27T14:30:45.572Z,34.70
2018-03-27T14:33:13.874Z,36.40
2018-03-27T14:35:42.505Z,37.70
2018-03-27T14:38:10.861Z,38.50
2018-03-27T14:40:39.339Z,39.40
2018-03-27T14:43:10.577Z,39.20
2018-03-27T14:45:39.048Z,40.20
2018-03-27T14:48:07.612Z,41.60
2018-03-27T14:50:36.750Z,42.40
2018-03-27T14:53:05.253Z,42.30
2018-03-27T14:55:33.559Z,42.90
2018-03-27T14:58:02.902Z,43.80
2018-03-27T15:00:31.359Z,43.80
2018-03-27T15:02:59.966Z,44.00
2018-03-27T15:05:28.363Z,44.20
2018-03-27T15:07:56.751Z,43.90
2018-03-27T15:10:25.079Z,44.30
2018-03-27T15:12:54.625Z,44.60
2018-03-27T15:15:22.997Z,44.90
2018-03-27T15:17:52.442Z,45.70
2018-03-27T15:20:21.767Z,45.90
2018-03-27T15:22:50.881Z,46.30
2018-03-27T15:25:19.457Z,46.20
2018-03-27T15:27:47.935Z,46.50
2018-03-27T15:30:16.530Z,46.00
2018-03-27T15:32:44.939Z,45.90
2018-03-27T15:35:13.352Z,46.80
2018-03-27T15:37:42.461Z,47.20
2018-03-27T15:40:11.064Z,47.20
2018-03-27T15:42:39.782Z,47.20
2018-03-27T15:45:08.157Z,46.70
2018-03-27T15:47:36.512Z,48.50
2018-03-27T15:50:05.068Z,49.70
2018-03-27T15:52:33.823Z,49.90
2018-03-27T15:55:02.149Z,50.80
2018-03-27T15:57:30.580Z,51.20
2018-03-27T16:00:00.562Z,51.20
2018-03-27T16:02:28.881Z,51.20
2018-03-27T16:04:58.117Z,53.00
2018-03-27T16:07:26.489Z,52.50
2018-03-27T16:09:55.330Z,52.50
2018-03-27T16:12:23.645Z,52.90
2018-03-27T16:14:52.082Z,54.20
2018-03-27T16:17:21.104Z,55.10
2018-03-27T16:19:50.433Z,58.00
2018-03-27T16:22:18.752Z,58.00
2018-03-27T16:24:47.365Z,58.70
2018-03-27T16:27:16.646Z,59.50
2018-03-27T16:29:45.109Z,59.50
2018-03-27T16:32:13.579Z,59.70
2018-03-27T16:34:41.939Z,60.80
2018-03-27T16:37:10.379Z,60.30
2018-03-27T16:39:39.559Z,61.20
2018-03-27T16:42:07.967Z,61.20
2018-03-27T16:44:37.133Z,61.90
2018-03-27T16:47:06.282Z,60.60
2018-03-27T16:49:34.717Z,60.60
2018-03-27T16:52:03.058Z,60.60
2018-03-27T16:54:31.493Z,61.10
2018-03-27T16:57:00.737Z,61.30
2018-03-27T16:59:29.636Z,61.30
2018-03-27T17:01:58.177Z,61.10
2018-03-27T17:04:26.596Z,61.00
2018-03-27T17:06:54.942Z,61.20
2018-03-27T17:09:24.331Z,61.20
2018-03-27T17:11:52.755Z,62.20
2018-03-27T17:14:21.273Z,62.00
2018-03-27T17:16:49.860Z,61.20
2018-03-27T17:19:20.040Z,61.00
2018-03-27T17:21:49.194Z,61.30
2018-03-27T17:24:19.352Z,62.00
2018-03-27T17:26:47.724Z,62.00
2018-03-27T17:29:16.015Z,61.80
2018-03-27T17:31:44.588Z,60.80
2018-03-27T17:34:13.082Z,60.50
2018-03-27T17:36:41.439Z,60.70
2018-03-27T17:39:09.849Z,58.00
2018-03-27T17:41:38.276Z,58.50
2018-03-27T17:44:06.649Z,58.00
2018-03-27T17:46:35.266Z,59.10
2018-03-27T17:49:03.805Z,57.90
2018-03-27T17:51:32.133Z,57.90
2018-03-27T17:54:01.589Z,57.50
2018-03-27T17:56:31.822Z,59.20
2018-03-27T17:59:01.134Z,59.10
2018-03-27T18:01:29.603Z,59.90
2018-03-27T18:03:58.013Z,59.40
2018-03-27T18:06:26.498Z,59.60
2018-03-27T18:08:55.196Z,60.30
2018-03-27T18:11:23.781Z,61.00
2018-03-27T18:13:52.969Z,61.20
2018-03-27T18:16:21.340Z,61.20
2018-03-27T18:18:49.719Z,61.70
2018-03-27T18:21:18.105Z,60.50
2018-03-27T18:23:46.476Z,61.20
2018-03-27T18:26:15.189Z,62.10
2018-03-27T18:28:43.569Z,62.60
2018-03-27T18:31:12.107Z,62.70
2018-03-27T18:33:40.439Z,61.60
2018-03-27T18:36:10.714Z,59.50
2018-03-27T18:38:39.532Z,59.50
2018-03-27T18:41:08.016Z,60.10
2018-03-27T18:43:36.641Z,61.00
2018-03-27T18:46:05.044Z,60.30
2018-03-27T18:48:33.357Z,60.90
2018-03-27T18:51:01.729Z,60.30
2018-03-27T18:53:30.101Z,60.00
2018-03-27T18:55:58.509Z,60.00
2018-03-27T18:58:27.640Z,61.00
2018-03-27T19:00:55.982Z,60.90
2018-03-27T19:03:25.229Z,60.60
2018-03-27T19:05:53.590Z,60.60
2018-03-27T19:08:22.007Z,60.10
2018-03-27T19:10:50.416Z,61.10
2018-03-27T19:13:18.733Z,60.80
2018-03-27T19:15:47.024Z,59.90
2018-03-27T19:18:15.385Z,58.10
2018-03-27T19:20:43.877Z,59.30
2018-03-27T19:23:12.313Z,59.30
2018-03-27T19:25:40.636Z,59.00
2018-03-27T19:28:09.079Z,58.10
2018-03-27T19:30:38.191Z,58.30
2018-03-27T19:33:06.573Z,58.30
2018-03-27T19:35:35.657Z,58.60
2018-03-27T19:38:04.716Z,58.60
2018-03-27T19:40:33.155Z,58.10
2018-03-27T19:43:01.541Z,59.00
2018-03-27T19:45:29.923Z,59.20
2018-03-27T19:47:58.240Z,58.80
2018-03-27T19:50:26.597Z,58.80
2018-03-27T19:52:55.018Z,58.40
2018-03-27T19:55:23.374Z,58.60
2018-03-27T19:57:51.690Z,58.70
2018-03-27T20:00:20.263Z,58.80
2018-03-27T20:02:50.714Z,59.10
2018-03-27T20:05:19.039Z,60.40
2018-03-27T20:07:47.983Z,59.60
2018-03-27T20:10:16.364Z,60.00
2018-03-27T20:12:44.690Z,59.60
2018-03-27T20:15:13.884Z,60.50
2018-03-27T20:17:42.216Z,59.80
2018-03-27T20:20:10.679Z,59.80
2018-03-27T20:22:39.130Z,60.00
2018-03-27T20:25:08.390Z,61.00
2018-03-27T20:27:37.426Z,61.00
2018-03-27T20:30:06.859Z,61.90
2018-03-27T20:32:35.558Z,62.00
2018-03-27T20:35:04.282Z,62.40
2018-03-27T20:37:32.709Z,62.60
2018-03-27T20:40:01.057Z,63.10
2018-03-27T20:42:30.276Z,63.20
2018-03-27T20:44:58.637Z,63.10
2018-03-27T20:47:27.839Z,63.50
2018-03-27T20:49:56.942Z,63.40
2018-03-27T20:52:26.254Z,63.10
2018-03-27T20:54:54.670Z,63.10
2018-03-27T20:57:23.247Z,63.30
2018-03-27T20:59:51.684Z,63.50
2018-03-27T21:02:20.071Z,63.60
2018-03-27T21:04:48.416Z,63.50
2018-03-27T21:07:17.008Z,63.20
2018-03-27T21:09:47.261Z,63.00
2018-03-27T21:12:15.785Z,63.00
2018-03-27T21:14:44.182Z,62.40
2018-03-27T21:17:13.355Z,62.60
2018-03-27T21:19:41.790Z,62.60
2018-03-27T21:22:10.272Z,63.30
2018-03-27T21:24:38.688Z,63.10
2018-03-27T21:27:07.279Z,63.20
2018-03-27T21:29:35.620Z,62.40
2018-03-27T21:32:03.959Z,62.40
2018-03-27T21:34:32.366Z,62.40
2018-03-27T21:37:00.769Z,62.20
2018-03-27T21:39:29.119Z,62.80
2018-03-27T21:41:57.607Z,62.70
2018-03-27T21:44:26.135Z,62.10
2018-03-27T21:46:54.517Z,62.20
2018-03-27T21:49:22.904Z,62.00
2018-03-27T21:51:51.259Z,62.10
2018-03-27T21:54:19.821Z,62.40
2018-03-27T21:56:48.140Z,62.10
2018-03-27T21:59:16.454Z,62.40
2018-03-27T22:01:45.603Z,62.30
2018-03-27T22:04:13.957Z,62.30
2018-03-27T22:06:42.301Z,62.00
2018-03-27T22:09:12.413Z,62.60
2018-03-27T22:11:41.728Z,62.40
2018-03-27T22:14:10.175Z,62.40
2018-03-27T22:16:38.677Z,62.70
2018-03-27T22:19:07.821Z,62.50
2018-03-27T22:21:36.523Z,62.40
2018-03-27T22:24:06.460Z,62.40
2018-03-27T22:26:35.794Z,62.60
2018-03-27T22:29:04.126Z,62.60
2018-03-27T22:31:32.555Z,62.70
2018-03-27T22:34:00.866Z,62.80
2018-03-27T22:36:29.191Z,62.90
2018-03-27T22:38:58.277Z,62.70
2018-03-27T22:41:27.401Z,62.70
2018-03-27T22:43:55.711Z,62.60
2018-03-27T22:46:23.986Z,62.40
2018-03-27T22:48:52.315Z,62.70
2018-03-27T22:51:20.629Z,62.50
2018-03-27T22:53:48.905Z,62.10
2018-03-27T22:56:17.457Z,62.30
2018-03-27T22:58:45.831Z,62.70
2018-03-27T23:01:14.317Z,63.00
2018-03-27T23:03:42.664Z,63.10
2018-03-27T23:06:11.066Z,63.40
2018-03-27T23:08:39.605Z,64.30
2018-03-27T23:11:08.174Z,63.80
2018-03-27T23:13:36.530Z,64.10
2018-03-27T23:16:04.836Z,64.00
2018-03-27T23:18:33.166Z,63.50
2018-03-27T23:21:01.550Z,63.60
2018-03-27T23:23:30.031Z,63.80
2018-03-27T23:25:58.546Z,64.00
2018-03-27T23:28:26.837Z,64.20
2018-03-27T23:30:55.148Z,64.20
2018-03-27T23:33:24.351Z,64.40
2018-03-27T23:35:53.615Z,64.70
2018-03-27T23:38:23.219Z,64.70
2018-03-27T23:40:54.160Z,64.90
2018-03-27T23:43:25.080Z,65.50
2018-03-27T23:45:53.414Z,65.40
2018-03-27T23:48:21.835Z,65.30
2018-03-27T23:50:50.161Z,65.50
2018-03-27T23:53:19.254Z,65.70
2018-03-27T23:55:47.550Z,65.70
2018-03-27T23:58:15.946Z,66.20
